createdAt,value
2022-12-08T00:00:54.299Z,93233.41
2022-12-08T00:03:20.916Z,93228.41
2022-12-08T00:06:06.793Z,93224.81
2022-12-08T00:08:52.186Z,93227.97
2022-12-08T00:11:19.006Z,93216.47
2022-12-08T00:13:45.856Z,93220.03
2022-12-08T00:16:12.408Z,93219.06
2022-12-08T00:18:38.840Z,93228.31
2022-12-08T00:21:05.341Z,93230.09
2022-12-08T00:23:31.685Z,93232.69
2022-12-08T00:26:02.301Z,93232.31
2022-12-08T00:28:28.644Z,93233.13
2022-12-08T00:30:55.032Z,93234.72
2022-12-08T00:33:21.482Z,93245.88
2022-12-08T00:35:47.803Z,93245.50
2022-12-08T00:38:14.247Z,93250.66
2022-12-08T00:40:45.276Z,93252.91
2022-12-08T00:43:11.652Z,93269.56
2022-12-08T00:45:38.039Z,93272.59
2022-12-08T00:48:04.773Z,93278.91
2022-12-08T00:50:31.155Z,93294.59
2022-12-08T00:52:57.502Z,93292.00
2022-12-08T00:55:23.870Z,93301.38
2022-12-08T00:57:50.220Z,93300.72
2022-12-08T01:00:16.782Z,93326.91
2022-12-08T01:02:43.136Z,93330.47
2022-12-08T01:05:09.601Z,93353.44
2022-12-08T01:07:36.029Z,93383.53
2022-12-08T01:10:03.124Z,93388.72
2022-12-08T01:12:30.398Z,93409.38
2022-12-08T01:15:00.757Z,93415.78
2022-12-08T01:17:28.773Z,93419.00
2022-12-08T01:19:55.139Z,93429.94
2022-12-08T01:22:21.545Z,93435.28
2022-12-08T01:24:47.899Z,93446.44
2022-12-08T01:27:15.759Z,93443.69
2022-12-08T01:29:42.143Z,93454.84
2022-12-08T01:32:08.965Z,93466.59
2022-12-08T01:34:35.367Z,93479.16
2022-12-08T01:37:01.746Z,93488.34
2022-12-08T01:39:28.146Z,93500.31
2022-12-08T01:41:54.588Z,93520.97
2022-12-08T01:44:20.924Z,93542.44
2022-12-08T01:46:48.771Z,93569.88
2022-12-08T01:49:20.226Z,93591.34
2022-12-08T01:51:54.957Z,93608.94
2022-12-08T01:54:21.703Z,93637.53
2022-12-08T01:57:06.521Z,93663.38
2022-12-08T01:59:33.319Z,93701.16
2022-12-08T02:01:59.771Z,93725.41
2022-12-08T02:04:26.116Z,93763.19
2022-12-08T02:06:52.470Z,93799.00
2022-12-08T02:09:19.256Z,93857.19
2022-12-08T02:11:45.657Z,93892.38
2022-12-08T02:14:12.035Z,93938.06
2022-12-08T02:16:43.260Z,93998.00
2022-12-08T02:19:32.481Z,94045.31
2022-12-08T02:22:09.105Z,94071.31
2022-12-08T02:24:52.678Z,94124.28
2022-12-08T02:27:29.361Z,94172.69
2022-12-08T02:30:11.839Z,94208.88
2022-12-08T02:32:59.677Z,94262.47
2022-12-08T02:35:45.317Z,94285.06
2022-12-08T02:38:23.800Z,94324.44
2022-12-08T02:41:06.649Z,94342.50
2022-12-08T02:43:39.591Z,94353.94
2022-12-08T02:46:08.750Z,94376.84
2022-12-08T02:48:35.154Z,94384.22
2022-12-08T02:51:01.523Z,94381.78
2022-12-08T02:53:31.842Z,94390.50
2022-12-08T02:56:13.383Z,94413.38
2022-12-08T02:59:07.614Z,94414.63
2022-12-08T03:01:55.428Z,94424.94
2022-12-08T03:04:46.029Z,94413.66
2022-12-08T03:07:29.055Z,94414.63
2022-12-08T03:09:58.759Z,94417.34
2022-12-08T03:12:31.052Z,94411.34
2022-12-08T03:14:59.230Z,94432.59
2022-12-08T03:17:26.233Z,94437.75
2022-12-08T03:19:52.587Z,94444.69
2022-12-08T03:22:21.527Z,94437.06
2022-12-08T03:24:47.881Z,94446.75
2022-12-08T03:27:19.538Z,94446.75
2022-12-08T03:29:49.736Z,94448.00
2022-12-08T03:32:37.806Z,94437.06
2022-12-08T03:35:06.520Z,94439.00
2022-12-08T03:37:35.098Z,94437.06
2022-12-08T03:40:02.215Z,94451.78
2022-12-08T03:42:28.920Z,94447.41
2022-12-08T03:44:55.296Z,94457.72
2022-12-08T03:47:21.727Z,94464.53
2022-12-08T03:49:48.083Z,94476.78
2022-12-08T03:52:14.729Z,94478.94
2022-12-08T03:54:41.074Z,94479.72
2022-12-08T03:57:07.460Z,94487.78
2022-12-08T03:59:33.869Z,94484.50
2022-12-08T04:02:00.304Z,94481.38
2022-12-08T04:04:26.722Z,94493.59
2022-12-08T04:06:53.067Z,94490.06
2022-12-08T04:09:19.469Z,94485.44
2022-12-08T04:11:45.808Z,94491.72
2022-12-08T04:14:12.180Z,94481.66
2022-12-08T04:16:38.591Z,94488.56
2022-12-08T04:19:05.083Z,94479.72
2022-12-08T04:21:31.459Z,94495.53
2022-12-08T04:24:01.278Z,94474.56
2022-12-08T04:26:28.225Z,94478.78
2022-12-08T04:28:54.580Z,94475.38
2022-12-08T04:31:21.074Z,94473.47
2022-12-08T04:33:48.544Z,94473.31
2022-12-08T04:36:15.192Z,94470.75
2022-12-08T04:38:41.540Z,94473.19
2022-12-08T04:41:07.973Z,94474.00
2022-12-08T04:43:35.409Z,94487.84
2022-12-08T04:46:01.767Z,94493.19
2022-12-08T04:48:28.140Z,94486.78
2022-12-08T04:50:54.484Z,94488.53
2022-12-08T04:53:21.267Z,94496.56
2022-12-08T04:55:49.539Z,94478.50
2022-12-08T04:58:18.075Z,94476.88
2022-12-08T05:00:44.677Z,94465.56
2022-12-08T05:03:11.248Z,94458.78
2022-12-08T05:05:37.608Z,94456.22
2022-12-08T05:08:04.248Z,94466.53
2022-12-08T05:10:31.243Z,94477.53
2022-12-08T05:12:58.805Z,94488.69
2022-12-08T05:15:25.251Z,94497.25
2022-12-08T05:17:51.636Z,94509.34
2022-12-08T05:20:18.073Z,94515.34
2022-12-08T05:22:44.425Z,94534.66
2022-12-08T05:25:10.958Z,94538.19
2022-12-08T05:27:37.477Z,94545.25
2022-12-08T05:30:04.610Z,94555.06
2022-12-08T05:32:31.224Z,94558.75
2022-12-08T05:34:57.679Z,94559.69
2022-12-08T05:37:24.030Z,94555.47
2022-12-08T05:39:50.410Z,94547.44
2022-12-08T05:42:20.512Z,94552.88
2022-12-08T05:44:49.600Z,94546.38
2022-12-08T05:47:15.973Z,94547.06
2022-12-08T05:49:42.340Z,94534.16
2022-12-08T05:52:08.851Z,94536.88
2022-12-08T05:54:35.297Z,94527.38
2022-12-08T05:57:01.640Z,94508.34
2022-12-08T05:59:27.998Z,94504.28
2022-12-08T06:01:54.389Z,94493.13
2022-12-08T06:04:20.830Z,94467.03
2022-12-08T06:06:47.182Z,94446.22
2022-12-08T06:09:13.566Z,94436.56
2022-12-08T06:11:39.959Z,94445.78
2022-12-08T06:14:12.211Z,94437.53
2022-12-08T06:16:38.723Z,94435.91
2022-12-08T06:19:05.205Z,94428.81
2022-12-08T06:21:31.586Z,94419.97
2022-12-08T06:23:57.966Z,94407.75
2022-12-08T06:26:24.411Z,94405.81
2022-12-08T06:28:51.040Z,94398.88
2022-12-08T06:31:19.127Z,94389.06
2022-12-08T06:33:45.710Z,94393.28
2022-12-08T06:36:13.364Z,94391.38
2022-12-08T06:38:43.363Z,94398.81
2022-12-08T06:41:10.421Z,94388.84
2022-12-08T06:43:36.856Z,94388.84
2022-12-08T06:46:05.344Z,94399.84
2022-12-08T06:48:31.770Z,94400.22
2022-12-08T06:50:58.128Z,94405.69
2022-12-08T06:53:24.488Z,94402.94
2022-12-08T06:56:01.074Z,94424.44
2022-12-08T06:58:27.491Z,94427.69
2022-12-08T07:00:54.026Z,94436.25
2022-12-08T07:03:20.655Z,94446.44
2022-12-08T07:05:47.001Z,94455.13
2022-12-08T07:08:13.483Z,94472.28
2022-12-08T07:10:39.925Z,94481.06
2022-12-08T07:13:06.321Z,94495.75
2022-12-08T07:15:32.705Z,94494.34
2022-12-08T07:18:00.309Z,94489.88
2022-12-08T07:20:27.103Z,94501.81
2022-12-08T07:22:53.595Z,94507.63
2022-12-08T07:25:20.190Z,94504.78
2022-12-08T07:27:46.680Z,94488.44
2022-12-08T07:30:13.750Z,94454.72
2022-12-08T07:32:40.148Z,94425.63
2022-12-08T07:35:07.283Z,94383.31
2022-12-08T07:37:33.960Z,94349.22
2022-12-08T07:40:00.398Z,94310.59
2022-12-08T07:42:26.737Z,94275.41
2022-12-08T07:44:53.088Z,94248.25
2022-12-08T07:47:19.481Z,94191.25
2022-12-08T07:49:45.836Z,94146.50
2022-12-08T07:52:12.195Z,94098.06
2022-12-08T07:54:38.572Z,94049.63
2022-12-08T07:57:06.048Z,93996.03
2022-12-08T07:59:32.872Z,93930.63
2022-12-08T08:02:22.324Z,93893.84
2022-12-08T08:04:45.696Z,93827.81
2022-12-08T08:07:12.313Z,93784.84
2022-12-08T08:09:38.815Z,93733.19
2022-12-08T08:12:29.728Z,93692.81
2022-12-08T08:14:51.879Z,93648.75
2022-12-08T08:17:18.359Z,93605.66
2022-12-08T08:19:45.997Z,93573.41
2022-12-08T08:22:12.357Z,93547.56
2022-12-08T08:24:44.465Z,93523.84
2022-12-08T08:27:11.284Z,93499.81
2022-12-08T08:29:37.682Z,93456.88
2022-12-08T08:32:04.094Z,93439.91
2022-12-08T08:34:30.441Z,93406.84
2022-12-08T08:36:56.897Z,93382.00
2022-12-08T08:39:23.405Z,93351.63
2022-12-08T08:41:49.747Z,93330.63
2022-12-08T08:44:16.097Z,93305.06
2022-12-08T08:46:42.609Z,93276.28
2022-12-08T08:49:09.024Z,93254.69
2022-12-08T08:51:35.465Z,93239.19
2022-12-08T08:54:01.817Z,93220.13
2022-12-08T08:56:28.201Z,93188.78
2022-12-08T08:58:54.789Z,93172.91
2022-12-08T09:01:23.136Z,93165.16
2022-12-08T09:03:49.593Z,93150.91
2022-12-08T09:06:16.222Z,93139.56
2022-12-08T09:08:42.940Z,93120.34
2022-12-08T09:11:09.448Z,93108.84
2022-12-08T09:13:35.930Z,93096.56
2022-12-08T09:16:06.562Z,93092.97
2022-12-08T09:18:32.983Z,93104.13
2022-12-08T09:21:11.514Z,93080.50
2022-12-08T09:23:37.862Z,93099.38
2022-12-08T09:26:05.152Z,93104.91
2022-12-08T09:28:32.290Z,93100.63
2022-12-08T09:30:58.759Z,93092.25
2022-12-08T09:33:25.218Z,93091.09
2022-12-08T09:35:51.577Z,93088.69
2022-12-08T09:38:18.021Z,93087.72
2022-12-08T09:40:53.724Z,93086.72
2022-12-08T09:43:41.967Z,93097.81
2022-12-08T09:46:09.485Z,93088.81
2022-12-08T09:48:40.467Z,93092.00
2022-12-08T09:51:06.920Z,93089.78
2022-12-08T09:53:44.281Z,93083.00
2022-12-08T09:56:19.071Z,93076.25
2022-12-08T09:59:05.675Z,93080.16
2022-12-08T10:01:33.262Z,93078.22
2022-12-08T10:03:59.703Z,93080.63
2022-12-08T10:06:41.885Z,93074.28
2022-12-08T10:09:41.672Z,93065.56
2022-12-08T10:12:32.472Z,93061.97
2022-12-08T10:15:30.008Z,93067.97
2022-12-08T10:17:56.389Z,93062.59
2022-12-08T10:20:27.070Z,93061.81
2022-12-08T10:23:01.625Z,93056.06
2022-12-08T10:25:35.329Z,93037.63
2022-12-08T10:28:01.770Z,93036.63
2022-12-08T10:30:28.111Z,93030.69
2022-12-08T10:32:54.531Z,93038.22
2022-12-08T10:35:22.037Z,93030.31
2022-12-08T10:37:58.966Z,93042.53
2022-12-08T10:40:30.200Z,93017.56
2022-12-08T10:42:57.630Z,92996.53
2022-12-08T10:45:31.363Z,93001.69
2022-12-08T10:48:05.526Z,93001.53
2022-12-08T10:50:34.921Z,92976.34
2022-12-08T10:53:02.424Z,92960.47
2022-12-08T10:55:29.279Z,92965.63
2022-12-08T10:57:55.632Z,92958.25
2022-12-08T11:00:24.915Z,92938.25
2022-12-08T11:02:58.848Z,92919.59
2022-12-08T11:05:33.448Z,92893.59
2022-12-08T11:08:00.021Z,92885.03
2022-12-08T11:10:37.262Z,92889.41
2022-12-08T11:13:05.995Z,92867.97
2022-12-08T11:15:34.963Z,92869.19
2022-12-08T11:18:06.264Z,92862.03
2022-12-08T11:20:41.380Z,92886.28
2022-12-08T11:23:19.382Z,92916.09
2022-12-08T11:25:45.753Z,92940.81
2022-12-08T11:28:12.168Z,92963.13
2022-12-08T11:30:39.907Z,93003.88
2022-12-08T11:33:17.512Z,93035.09
2022-12-08T11:35:45.170Z,93089.00
2022-12-08T11:38:21.402Z,93128.53
2022-12-08T11:40:49.121Z,93158.00
2022-12-08T11:43:33.797Z,93214.81
2022-12-08T11:46:09.158Z,93254.59
2022-12-08T11:48:59.956Z,93300.34
2022-12-08T11:51:48.600Z,93338.22
2022-12-08T11:54:35.965Z,93381.56
2022-12-08T11:57:03.775Z,93421.66
2022-12-08T11:59:35.827Z,93453.97
2022-12-08T12:02:02.804Z,93482.06
2022-12-08T12:05:02.625Z,93508.56
2022-12-08T12:07:46.332Z,93528.56
2022-12-08T12:10:27.902Z,93557.03
2022-12-08T12:13:18.453Z,93564.25
2022-12-08T12:15:56.960Z,93624.28
2022-12-08T12:18:34.374Z,93653.34
2022-12-08T12:21:08.220Z,93700.25
2022-12-08T12:23:59.649Z,93746.50
2022-12-08T12:26:29.718Z,93807.31
2022-12-08T12:29:03.229Z,93844.97
2022-12-08T12:31:30.557Z,93882.94
2022-12-08T12:34:25.727Z,93921.13
2022-12-08T12:37:04.258Z,93955.06
2022-12-08T12:39:31.817Z,93996.13
2022-12-08T12:42:02.157Z,94034.94
2022-12-08T12:44:28.505Z,94082.13
2022-12-08T12:46:54.899Z,94105.72
2022-12-08T12:49:39.764Z,94139.66
2022-12-08T12:52:14.986Z,94176.06
2022-12-08T12:54:50.612Z,94211.34
2022-12-08T12:57:20.052Z,94266.78
2022-12-08T12:59:53.276Z,94308.63
2022-12-08T13:02:31.338Z,94320.13
2022-12-08T13:05:13.882Z,94349.38
2022-12-08T13:07:49.568Z,94366.03
2022-12-08T13:10:16.140Z,94399.00
2022-12-08T13:12:43.779Z,94423.63
2022-12-08T13:15:17.830Z,94449.78
2022-12-08T13:17:45.089Z,94472.09
2022-12-08T13:20:22.719Z,94505.09
2022-12-08T13:22:49.435Z,94517.34
2022-12-08T13:25:40.874Z,94531.25
2022-12-08T13:28:16.468Z,94565.19
2022-12-08T13:30:44.227Z,94593.94
2022-12-08T13:33:18.866Z,94624.44
2022-12-08T13:35:50.246Z,94642.94
2022-12-08T13:38:17.764Z,94645.38
2022-12-08T13:40:44.169Z,94641.28
2022-12-08T13:43:43.473Z,94637.63
2022-12-08T13:57:29.640Z,94547.38
2022-12-08T14:00:00.401Z,94557.44
2022-12-08T14:02:45.477Z,94559.63
2022-12-08T14:05:34.928Z,94556.09
2022-12-08T14:08:00.496Z,94564.97
2022-12-08T14:10:28.707Z,94575.44
2022-12-08T14:12:57.278Z,94581.41
2022-12-08T14:15:23.653Z,94584.19
2022-12-08T14:17:54.241Z,94586.91
2022-12-08T14:20:20.568Z,94584.47
2022-12-08T14:22:48.040Z,94576.00
2022-12-08T14:25:15.241Z,94589.63
2022-12-08T14:27:41.654Z,94576.69
2022-12-08T14:30:18.641Z,94575.50
2022-12-08T14:32:49.987Z,94558.88
2022-12-08T14:35:27.933Z,94544.97
2022-12-08T14:37:59.214Z,94561.59
2022-12-08T14:40:38.983Z,94571.94
2022-12-08T14:43:14.755Z,94583.41
2022-12-08T14:45:41.324Z,94564.66
2022-12-08T14:48:36.138Z,94533.63
2022-12-08T14:51:19.264Z,94506.44
2022-12-08T14:54:08.570Z,94506.72
2022-12-08T14:56:43.476Z,94480.06
2022-12-08T14:59:15.027Z,94458.56
2022-12-08T15:01:42.105Z,94454.63
2022-12-08T15:04:11.939Z,94451.91
2022-12-08T15:06:51.249Z,94437.38
2022-12-08T15:09:28.732Z,94425.69
2022-12-08T15:12:27.370Z,94413.88
2022-12-08T15:14:55.436Z,94402.56
2022-12-08T15:17:40.157Z,94388.69
2022-12-08T15:20:28.704Z,94389.00
2022-12-08T15:22:58.088Z,94384.13
2022-12-08T15:25:24.464Z,94384.41
2022-12-08T15:27:53.114Z,94373.41
2022-12-08T15:30:19.660Z,94370.00
2022-12-08T15:32:46.097Z,94361.75
2022-12-08T15:35:13.949Z,94357.84
2022-12-08T15:37:40.348Z,94350.09
2022-12-08T15:40:08.022Z,94342.66
2022-12-08T15:42:34.749Z,94337.41
2022-12-08T15:45:01.100Z,94322.06
2022-12-08T15:47:34.755Z,94299.63
2022-12-08T15:50:01.178Z,94278.00
2022-12-08T15:52:27.591Z,94265.72
2022-12-08T15:54:54.758Z,94258.94
2022-12-08T15:58:24.904Z,94256.63
2022-12-08T16:07:04.738Z,94202.03
2022-12-08T16:09:13.219Z,94175.84
2022-12-08T16:12:08.353Z,94197.13
2022-12-08T16:17:22.691Z,94189.94
2022-12-08T16:19:49.123Z,94191.63
2022-12-08T16:25:18.338Z,94182.34
2022-12-08T16:28:12.376Z,94167.84
2022-12-08T16:30:32.584Z,94145.56
2022-12-08T16:32:58.937Z,94123.31
2022-12-08T16:35:25.336Z,94108.13
2022-12-08T16:37:51.709Z,94094.84
2022-12-08T16:40:18.226Z,94083.22
2022-12-08T16:42:45.741Z,94079.66
2022-12-08T16:45:12.819Z,94042.88
2022-12-08T16:47:40.521Z,94028.38
2022-12-08T16:50:08.550Z,94009.63
2022-12-08T16:52:35.043Z,93987.38
2022-12-08T16:55:01.438Z,93970.94
2022-12-08T16:57:27.905Z,93937.09
2022-12-08T16:59:54.249Z,93920.63
2022-12-08T17:02:20.730Z,93896.28
2022-12-08T17:04:47.240Z,93850.66
2022-12-08T17:07:13.659Z,93819.34
2022-12-08T17:09:40.018Z,93796.13
2022-12-08T17:12:06.419Z,93784.19
2022-12-08T17:14:35.866Z,93784.19
2022-12-08T17:17:02.323Z,93777.44
2022-12-08T17:19:28.833Z,93773.38
2022-12-08T17:21:55.236Z,93774.19
2022-12-08T17:24:23.032Z,93774.19
2022-12-08T17:26:49.397Z,93767.41
2022-12-08T17:29:15.834Z,93769.34
2022-12-08T17:31:42.346Z,93759.34
2022-12-08T17:34:10.337Z,93759.66
2022-12-08T17:36:36.955Z,93760.78
2022-12-08T17:39:03.581Z,93765.78
2022-12-08T17:41:30.024Z,93784.63
2022-12-08T17:43:56.500Z,93781.25
2022-12-08T17:46:22.999Z,93771.59
2022-12-08T17:48:49.431Z,93772.06
2022-12-08T17:51:15.927Z,93755.44
2022-12-08T17:53:42.397Z,93732.91
2022-12-08T17:56:17.922Z,93721.44
2022-12-08T17:58:45.680Z,93708.03
2022-12-08T18:01:13.933Z,93683.53
2022-12-08T18:03:40.298Z,93653.19
2022-12-08T18:06:10.750Z,93629.94
2022-12-08T18:08:37.280Z,93595.41
2022-12-08T18:11:04.137Z,93583.16
2022-12-08T18:13:30.585Z,93571.84
2022-12-08T18:15:56.997Z,93565.38
2022-12-08T18:18:23.532Z,93578.31
2022-12-08T18:20:49.921Z,93565.38
2022-12-08T18:23:17.092Z,93559.09
2022-12-08T18:25:44.051Z,93536.50
2022-12-08T18:28:10.464Z,93529.53
2022-12-08T18:30:36.941Z,93520.66
2022-12-08T18:33:04.740Z,93521.13
2022-12-08T18:35:31.123Z,93516.94
2022-12-08T18:37:58.372Z,93526.97
2022-12-08T18:40:24.762Z,93543.75
2022-12-08T18:42:51.132Z,93549.91
2022-12-08T18:45:22.639Z,93573.16
2022-12-08T18:47:50.016Z,93617.72
2022-12-08T18:50:16.791Z,93672.72
2022-12-08T18:52:44.493Z,93730.94
2022-12-08T18:55:10.940Z,93786.38
2022-12-08T18:57:38.513Z,93829.06
2022-12-08T19:00:06.415Z,93863.06
2022-12-08T19:02:33.890Z,93909.75
2022-12-08T19:05:00.355Z,93944.56
2022-12-08T19:07:27.001Z,93971.44
2022-12-08T19:09:54.055Z,94008.94
2022-12-08T19:12:20.443Z,94029.84
2022-12-08T19:14:46.898Z,94061.69
2022-12-08T19:17:13.267Z,94113.81
2022-12-08T19:19:39.610Z,94157.16
2022-12-08T19:22:06.053Z,94198.03
2022-12-08T19:24:34.679Z,94222.44
2022-12-08T19:27:01.093Z,94257.44
2022-12-08T19:29:27.459Z,94288.91
2022-12-08T19:31:53.967Z,94315.25
2022-12-08T19:34:20.322Z,94352.13
2022-12-08T19:36:46.766Z,94373.00
2022-12-08T19:39:36.466Z,94379.22
2022-12-08T19:42:21.864Z,94382.78
2022-12-08T19:44:54.176Z,94382.22
2022-12-08T19:47:22.449Z,94396.31
2022-12-08T19:49:48.989Z,94384.41
2022-12-08T19:52:15.349Z,94384.41
2022-12-08T19:54:41.728Z,94371.38
2022-12-08T19:57:08.173Z,94362.16
2022-12-08T19:59:34.535Z,94364.06
2022-12-08T20:02:00.949Z,94366.91
2022-12-08T20:04:27.464Z,94372.19
2022-12-08T20:06:54.322Z,94385.22
2022-12-08T20:09:20.998Z,94374.91
2022-12-08T20:11:47.461Z,94387.94
2022-12-08T20:14:13.821Z,94395.09
2022-12-08T20:16:41.659Z,94401.47
2022-12-08T20:19:08.259Z,94406.88
2022-12-08T20:21:34.707Z,94408.75
2022-12-08T20:24:01.100Z,94427.72
2022-12-08T20:26:27.516Z,94427.72
2022-12-08T20:28:53.898Z,94425.97
2022-12-08T20:31:22.193Z,94419.03
2022-12-08T20:33:48.621Z,94404.97
2022-12-08T20:36:18.043Z,94387.91
2022-12-08T20:38:48.366Z,94380.88
2022-12-08T20:41:17.722Z,94375.72
2022-12-08T20:43:44.843Z,94360.00
2022-12-08T20:46:12.440Z,94351.31
2022-12-08T20:48:38.969Z,94351.88
2022-12-08T20:51:05.646Z,94337.25
2022-12-08T20:53:32.209Z,94320.44
2022-12-08T20:55:58.631Z,94280.34
2022-12-08T20:58:25.062Z,94249.19
2022-12-08T21:00:51.530Z,94218.69
2022-12-08T21:03:18.688Z,94202.25
2022-12-08T21:05:51.412Z,94183.28
2022-12-08T21:08:19.228Z,94171.09
2022-12-08T21:10:46.446Z,94152.13
2022-12-08T21:13:13.002Z,94155.66
2022-12-08T21:15:39.621Z,94155.66
2022-12-08T21:18:06.254Z,94150.50
2022-12-08T21:20:32.755Z,94163.25
2022-12-08T21:22:59.135Z,94170.59
2022-12-08T21:25:25.862Z,94203.69
2022-12-08T21:27:52.281Z,94212.88
2022-12-08T21:30:18.770Z,94242.72
2022-12-08T21:32:45.451Z,94249.19
2022-12-08T21:35:11.911Z,94268.47
2022-12-08T21:37:38.415Z,94292.84
2022-12-08T21:40:05.827Z,94303.66
2022-12-08T21:42:45.001Z,94344.53
2022-12-08T21:45:16.289Z,94357.56
2022-12-08T21:47:43.344Z,94361.88
2022-12-08T21:50:11.525Z,94369.47
2022-12-08T21:52:39.429Z,94382.84
2022-12-08T21:55:06.572Z,94408.16
2022-12-08T21:57:33.226Z,94414.94
2022-12-08T21:59:59.662Z,94417.53
2022-12-08T22:02:26.339Z,94437.66
2022-12-08T22:04:53.035Z,94462.03
2022-12-08T22:07:20.399Z,94466.47
2022-12-08T22:09:47.400Z,94467.44
2022-12-08T22:12:13.922Z,94471.75
2022-12-08T22:14:40.462Z,94475.41
2022-12-08T22:17:07.325Z,94486.63
2022-12-08T22:19:34.040Z,94499.63
2022-12-08T22:22:00.677Z,94523.16
2022-12-08T22:24:29.749Z,94521.53
2022-12-08T22:26:56.150Z,94540.72
2022-12-08T22:29:22.637Z,94550.31
2022-12-08T22:31:49.383Z,94574.50
2022-12-08T22:34:15.949Z,94592.63
2022-12-08T22:36:42.838Z,94606.69
2022-12-08T22:39:09.864Z,94629.81
2022-12-08T22:41:36.357Z,94647.25
2022-12-08T22:44:06.131Z,94659.44
2022-12-08T22:46:32.752Z,94675.66
2022-12-08T22:48:59.441Z,94682.44
2022-12-08T22:51:25.898Z,94691.78
2022-12-08T22:53:52.327Z,94703.94
2022-12-08T22:56:18.859Z,94715.16
2022-12-08T22:58:45.509Z,94728.72
2022-12-08T23:01:22.994Z,94748.94
2022-12-08T23:03:49.552Z,94788.78
2022-12-08T23:06:16.335Z,94803.31
2022-12-08T23:08:42.941Z,94802.38
2022-12-08T23:11:09.478Z,94807.50
2022-12-08T23:13:37.094Z,94819.88
2022-12-08T23:16:03.632Z,94827.81
2022-12-08T23:18:30.242Z,94832.03
2022-12-08T23:20:56.682Z,94821.50
2022-12-08T23:23:23.166Z,94817.78
2022-12-08T23:25:49.744Z,94819.63
2022-12-08T23:28:16.205Z,94822.09
2022-12-08T23:30:42.675Z,94815.66
2022-12-08T23:33:09.315Z,94830.16
2022-12-08T23:35:35.886Z,94845.81
2022-12-08T23:38:02.487Z,94859.59
2022-12-08T23:40:28.883Z,94883.66
2022-12-08T23:42:55.508Z,94907.00
2022-12-08T23:45:22.112Z,94925.22
2022-12-08T23:47:48.467Z,94951.84
2022-12-08T23:50:14.943Z,94969.84
2022-12-08T23:52:41.314Z,94985.47
2022-12-08T23:55:08.357Z,95001.94
2022-12-08T23:57:35.665Z,95033.09
